sensor_id;sensor_type;location;lat;lon;timestamp;temperature;humidity
66013;DHT22;52783;50.502;8.190;2023-09-12T00:00:57;20.80;99.90
66013;DHT22;52783;50.502;8.190;2023-09-12T00:03:23;20.80;99.90
66013;DHT22;52783;50.502;8.190;2023-09-12T00:05:56;20.70;99.90
66013;DHT22;52783;50.502;8.190;2023-09-12T00:08:23;20.80;99.90
66013;DHT22;52783;50.502;8.190;2023-09-12T00:11:06;20.60;99.90
66013;DHT22;52783;50.502;8.190;2023-09-12T00:13:35;20.40;99.90
66013;DHT22;52783;50.502;8.190;2023-09-12T00:16:01;20.40;99.90
66013;DHT22;52783;50.502;8.190;2023-09-12T00:18:27;20.40;99.90
66013;DHT22;52783;50.502;8.190;2023-09-12T00:20:52;20.40;99.90
66013;DHT22;52783;50.502;8.190;2023-09-12T00:23:20;20.40;99.90
66013;DHT22;52783;50.502;8.190;2023-09-12T00:25:45;20.20;99.90
66013;DHT22;52783;50.502;8.190;2023-09-12T00:28:11;20.20;99.90
66013;DHT22;52783;50.502;8.190;2023-09-12T00:30:36;20.10;99.90
66013;DHT22;52783;50.502;8.190;2023-09-12T00:33:02;20.10;99.90
66013;DHT22;52783;50.502;8.190;2023-09-12T00:35:27;20.10;99.90
66013;DHT22;52783;50.502;8.190;2023-09-12T00:37:53;20.20;99.90
66013;DHT22;52783;50.502;8.190;2023-09-12T00:40:18;20.10;99.90
66013;DHT22;52783;50.502;8.190;2023-09-12T00:42:44;20.20;99.90
66013;DHT22;52783;50.502;8.190;2023-09-12T00:45:09;20.10;99.90
66013;DHT22;52783;50.502;8.190;2023-09-12T00:47:35;20.10;99.90
66013;DHT22;52783;50.502;8.190;2023-09-12T00:50:02;20.00;99.90
66013;DHT22;52783;50.502;8.190;2023-09-12T00:52:31;20.00;99.90
66013;DHT22;52783;50.502;8.190;2023-09-12T00:54:58;19.90;99.90
66013;DHT22;52783;50.502;8.190;2023-09-12T00:57:24;19.90;99.90
66013;DHT22;52783;50.502;8.190;2023-09-12T00:59:51;20.00;99.90
66013;DHT22;52783;50.502;8.190;2023-09-12T01:02:18;20.00;99.90
66013;DHT22;52783;50.502;8.190;2023-09-12T01:04:44;20.00;99.90
66013;DHT22;52783;50.502;8.190;2023-09-12T01:07:10;20.00;99.90
66013;DHT22;52783;50.502;8.190;2023-09-12T01:09:36;20.10;99.90
66013;DHT22;52783;50.502;8.190;2023-09-12T01:12:01;20.00;99.90
66013;DHT22;52783;50.502;8.190;2023-09-12T01:14:31;20.00;99.90
66013;DHT22;52783;50.502;8.190;2023-09-12T01:16:57;20.00;99.90
66013;DHT22;52783;50.502;8.190;2023-09-12T01:19:24;20.10;99.90
66013;DHT22;52783;50.502;8.190;2023-09-12T01:27:41;20.10;99.90
66013;DHT22;52783;50.502;8.190;2023-09-12T01:30:08;20.00;99.90
66013;DHT22;52783;50.502;8.190;2023-09-12T01:32:35;19.90;99.90
66013;DHT22;52783;50.502;8.190;2023-09-12T01:35:01;19.90;99.90
66013;DHT22;52783;50.502;8.190;2023-09-12T01:37:32;19.90;99.90
66013;DHT22;52783;50.502;8.190;2023-09-12T01:39:58;19.90;99.90
66013;DHT22;52783;50.502;8.190;2023-09-12T01:42:24;19.90;99.90
66013;DHT22;52783;50.502;8.190;2023-09-12T01:44:55;19.80;99.90
66013;DHT22;52783;50.502;8.190;2023-09-12T01:47:22;19.80;99.90
66013;DHT22;52783;50.502;8.190;2023-09-12T01:49:52;19.70;99.90
66013;DHT22;52783;50.502;8.190;2023-09-12T01:52:19;19.80;99.90
66013;DHT22;52783;50.502;8.190;2023-09-12T01:54:45;19.70;99.90
66013;DHT22;52783;50.502;8.190;2023-09-12T01:57:12;19.70;99.90
66013;DHT22;52783;50.502;8.190;2023-09-12T01:59:38;19.70;99.90
66013;DHT22;52783;50.502;8.190;2023-09-12T02:02:04;19.70;99.90
66013;DHT22;52783;50.502;8.190;2023-09-12T02:04:29;19.70;99.90
66013;DHT22;52783;50.502;8.190;2023-09-12T02:06:55;19.70;99.90
66013;DHT22;52783;50.502;8.190;2023-09-12T02:09:21;19.70;99.90
66013;DHT22;52783;50.502;8.190;2023-09-12T02:11:48;19.70;99.90
66013;DHT22;52783;50.502;8.190;2023-09-12T02:14:13;19.70;99.90
66013;DHT22;52783;50.502;8.190;2023-09-12T02:16:39;19.60;99.90
66013;DHT22;52783;50.502;8.190;2023-09-12T02:19:05;19.60;99.90
66013;DHT22;52783;50.502;8.190;2023-09-12T02:21:31;19.70;99.90
66013;DHT22;52783;50.502;8.190;2023-09-12T02:23:56;19.70;99.90
66013;DHT22;52783;50.502;8.190;2023-09-12T02:26:22;19.50;99.90
66013;DHT22;52783;50.502;8.190;2023-09-12T02:28:47;19.30;99.90
66013;DHT22;52783;50.502;8.190;2023-09-12T02:31:13;19.20;99.90
66013;DHT22;52783;50.502;8.190;2023-09-12T02:33:39;19.20;99.90
66013;DHT22;52783;50.502;8.190;2023-09-12T02:36:05;19.20;99.90
66013;DHT22;52783;50.502;8.190;2023-09-12T02:38:30;19.30;99.90
66013;DHT22;52783;50.502;8.190;2023-09-12T02:40:56;19.30;99.90
66013;DHT22;52783;50.502;8.190;2023-09-12T02:43:22;19.30;99.90
66013;DHT22;52783;50.502;8.190;2023-09-12T02:45:47;19.40;99.90
66013;DHT22;52783;50.502;8.190;2023-09-12T02:48:13;19.40;99.90
66013;DHT22;52783;50.502;8.190;2023-09-12T02:50:38;19.40;99.90
66013;DHT22;52783;50.502;8.190;2023-09-12T02:53:04;19.40;99.90
66013;DHT22;52783;50.502;8.190;2023-09-12T02:55:29;19.40;99.90
66013;DHT22;52783;50.502;8.190;2023-09-12T02:57:55;19.40;99.90
66013;DHT22;52783;50.502;8.190;2023-09-12T03:00:21;19.40;99.90
66013;DHT22;52783;50.502;8.190;2023-09-12T03:02:46;19.50;99.90
66013;DHT22;52783;50.502;8.190;2023-09-12T03:05:12;19.40;99.90
66013;DHT22;52783;50.502;8.190;2023-09-12T03:07:37;19.40;99.90
66013;DHT22;52783;50.502;8.190;2023-09-12T03:10:03;19.30;99.90
66013;DHT22;52783;50.502;8.190;2023-09-12T03:12:29;19.30;99.90
66013;DHT22;52783;50.502;8.190;2023-09-12T03:14:54;19.30;99.90
66013;DHT22;52783;50.502;8.190;2023-09-12T03:17:20;19.40;99.90
66013;DHT22;52783;50.502;8.190;2023-09-12T03:19:45;19.50;99.90
66013;DHT22;52783;50.502;8.190;2023-09-12T03:22:11;19.50;99.90
66013;DHT22;52783;50.502;8.190;2023-09-12T03:24:37;19.40;99.90
66013;DHT22;52783;50.502;8.190;2023-09-12T03:27:02;19.40;99.90
66013;DHT22;52783;50.502;8.190;2023-09-12T03:29:28;19.40;99.90
66013;DHT22;52783;50.502;8.190;2023-09-12T03:31:53;19.40;99.90
66013;DHT22;52783;50.502;8.190;2023-09-12T03:34:19;19.40;99.90
66013;DHT22;52783;50.502;8.190;2023-09-12T03:36:44;19.30;99.90
66013;DHT22;52783;50.502;8.190;2023-09-12T03:39:10;19.30;99.90
66013;DHT22;52783;50.502;8.190;2023-09-12T03:41:38;19.30;99.90
66013;DHT22;52783;50.502;8.190;2023-09-12T03:44:04;19.40;99.90
66013;DHT22;52783;50.502;8.190;2023-09-12T03:46:30;19.50;99.90
66013;DHT22;52783;50.502;8.190;2023-09-12T03:48:55;19.40;99.90
66013;DHT22;52783;50.502;8.190;2023-09-12T03:51:21;19.40;99.90
66013;DHT22;52783;50.502;8.190;2023-09-12T03:53:46;19.50;99.90
66013;DHT22;52783;50.502;8.190;2023-09-12T03:56:13;19.50;99.90
66013;DHT22;52783;50.502;8.190;2023-09-12T03:58:40;19.40;99.90
66013;DHT22;52783;50.502;8.190;2023-09-12T04:01:05;19.40;99.90
66013;DHT22;52783;50.502;8.190;2023-09-12T04:03:31;19.40;99.90
66013;DHT22;52783;50.502;8.190;2023-09-12T04:05:56;19.40;99.90
66013;DHT22;52783;50.502;8.190;2023-09-12T04:08:22;19.30;99.90
66013;DHT22;52783;50.502;8.190;2023-09-12T04:10:47;19.30;99.90
66013;DHT22;52783;50.502;8.190;2023-09-12T04:13:13;19.10;99.90
66013;DHT22;52783;50.502;8.190;2023-09-12T04:15:38;18.80;99.90
66013;DHT22;52783;50.502;8.190;2023-09-12T04:18:04;18.80;99.90
66013;DHT22;52783;50.502;8.190;2023-09-12T04:20:30;18.80;99.90
66013;DHT22;52783;50.502;8.190;2023-09-12T04:22:55;18.90;99.90
66013;DHT22;52783;50.502;8.190;2023-09-12T04:25:21;19.00;99.90
66013;DHT22;52783;50.502;8.190;2023-09-12T04:27:46;19.00;99.90
66013;DHT22;52783;50.502;8.190;2023-09-12T04:30:12;19.00;99.90
66013;DHT22;52783;50.502;8.190;2023-09-12T04:32:38;19.00;99.90
66013;DHT22;52783;50.502;8.190;2023-09-12T04:35:04;19.00;99.90
66013;DHT22;52783;50.502;8.190;2023-09-12T04:37:29;19.00;99.90
66013;DHT22;52783;50.502;8.190;2023-09-12T04:39:55;19.00;99.90
66013;DHT22;52783;50.502;8.190;2023-09-12T04:42:21;19.10;99.90
66013;DHT22;52783;50.502;8.190;2023-09-12T04:44:47;19.10;99.90
66013;DHT22;52783;50.502;8.190;2023-09-12T04:47:12;19.00;99.90
66013;DHT22;52783;50.502;8.190;2023-09-12T04:49:39;18.90;99.90
66013;DHT22;52783;50.502;8.190;2023-09-12T04:52:05;19.00;99.90
66013;DHT22;52783;50.502;8.190;2023-09-12T04:54:31;19.00;99.90
66013;DHT22;52783;50.502;8.190;2023-09-12T04:56:56;19.10;99.90
66013;DHT22;52783;50.502;8.190;2023-09-12T04:59:22;19.10;99.90
66013;DHT22;52783;50.502;8.190;2023-09-12T05:01:47;19.20;99.90
66013;DHT22;52783;50.502;8.190;2023-09-12T05:04:13;19.20;99.90
66013;DHT22;52783;50.502;8.190;2023-09-12T05:06:39;19.20;99.90
66013;DHT22;52783;50.502;8.190;2023-09-12T05:09:05;19.20;99.90
66013;DHT22;52783;50.502;8.190;2023-09-12T05:11:31;19.30;99.90
66013;DHT22;52783;50.502;8.190;2023-09-12T05:13:56;19.20;99.90
66013;DHT22;52783;50.502;8.190;2023-09-12T05:16:22;19.20;99.90
66013;DHT22;52783;50.502;8.190;2023-09-12T05:18:47;19.10;99.90
66013;DHT22;52783;50.502;8.190;2023-09-12T05:21:15;19.00;99.90
66013;DHT22;52783;50.502;8.190;2023-09-12T05:23:40;19.00;99.90
66013;DHT22;52783;50.502;8.190;2023-09-12T05:26:06;19.00;99.90
66013;DHT22;52783;50.502;8.190;2023-09-12T05:28:31;18.90;99.90
66013;DHT22;52783;50.502;8.190;2023-09-12T05:30:57;18.80;99.90
66013;DHT22;52783;50.502;8.190;2023-09-12T05:33:23;18.80;99.90
66013;DHT22;52783;50.502;8.190;2023-09-12T05:35:48;18.80;99.90
66013;DHT22;52783;50.502;8.190;2023-09-12T05:38:13;18.90;99.90
66013;DHT22;52783;50.502;8.190;2023-09-12T05:40:39;18.80;99.90
66013;DHT22;52783;50.502;8.190;2023-09-12T05:43:05;18.80;99.90
66013;DHT22;52783;50.502;8.190;2023-09-12T05:45:30;18.80;99.90
66013;DHT22;52783;50.502;8.190;2023-09-12T05:47:58;18.90;99.90
66013;DHT22;52783;50.502;8.190;2023-09-12T05:50:23;18.90;99.90
66013;DHT22;52783;50.502;8.190;2023-09-12T05:52:49;18.90;99.90
66013;DHT22;52783;50.502;8.190;2023-09-12T05:55:15;19.10;99.90
66013;DHT22;52783;50.502;8.190;2023-09-12T05:57:41;19.30;99.90
66013;DHT22;52783;50.502;8.190;2023-09-12T06:00:07;19.40;99.90
66013;DHT22;52783;50.502;8.190;2023-09-12T06:02:40;19.80;99.90
66013;DHT22;52783;50.502;8.190;2023-09-12T06:05:05;20.20;99.90
66013;DHT22;52783;50.502;8.190;2023-09-12T06:07:31;20.60;99.90
66013;DHT22;52783;50.502;8.190;2023-09-12T06:09:57;21.10;99.90
66013;DHT22;52783;50.502;8.190;2023-09-12T06:12:23;21.50;99.90
66013;DHT22;52783;50.502;8.190;2023-09-12T06:14:49;21.50;99.90
66013;DHT22;52783;50.502;8.190;2023-09-12T06:17:14;21.20;99.90
66013;DHT22;52783;50.502;8.190;2023-09-12T06:19:40;21.30;99.90
66013;DHT22;52783;50.502;8.190;2023-09-12T06:22:05;21.40;99.90
66013;DHT22;52783;50.502;8.190;2023-09-12T06:24:31;21.50;99.90
66013;DHT22;52783;50.502;8.190;2023-09-12T06:26:56;21.60;99.90
66013;DHT22;52783;50.502;8.190;2023-09-12T06:29:22;21.50;99.90
66013;DHT22;52783;50.502;8.190;2023-09-12T06:31:48;21.40;99.90
66013;DHT22;52783;50.502;8.190;2023-09-12T06:34:13;21.30;99.90
66013;DHT22;52783;50.502;8.190;2023-09-12T06:36:39;21.60;99.90
66013;DHT22;52783;50.502;8.190;2023-09-12T06:39:06;21.60;99.90
66013;DHT22;52783;50.502;8.190;2023-09-12T06:41:32;21.50;99.90
66013;DHT22;52783;50.502;8.190;2023-09-12T06:43:58;21.60;99.90
66013;DHT22;52783;50.502;8.190;2023-09-12T06:46:24;21.60;99.90
66013;DHT22;52783;50.502;8.190;2023-09-12T06:48:50;21.50;99.90
66013;DHT22;52783;50.502;8.190;2023-09-12T06:51:16;21.60;99.90
66013;DHT22;52783;50.502;8.190;2023-09-12T06:53:42;21.80;99.90
66013;DHT22;52783;50.502;8.190;2023-09-12T06:56:07;22.50;99.90
66013;DHT22;52783;50.502;8.190;2023-09-12T06:58:33;22.80;99.90
66013;DHT22;52783;50.502;8.190;2023-09-12T07:01:03;23.30;99.90
66013;DHT22;52783;50.502;8.190;2023-09-12T07:03:29;23.90;99.90
66013;DHT22;52783;50.502;8.190;2023-09-12T07:05:55;23.90;99.90
66013;DHT22;52783;50.502;8.190;2023-09-12T07:08:20;24.60;99.90
66013;DHT22;52783;50.502;8.190;2023-09-12T07:10:46;24.90;99.90
66013;DHT22;52783;50.502;8.190;2023-09-12T07:13:12;25.10;99.90
66013;DHT22;52783;50.502;8.190;2023-09-12T07:15:37;24.60;99.90
66013;DHT22;52783;50.502;8.190;2023-09-12T07:18:04;25.00;99.90
66013;DHT22;52783;50.502;8.190;2023-09-12T07:20:32;25.30;99.90
66013;DHT22;52783;50.502;8.190;2023-09-12T07:22:57;24.70;99.90
66013;DHT22;52783;50.502;8.190;2023-09-12T07:25:23;24.70;99.90
66013;DHT22;52783;50.502;8.190;2023-09-12T07:27:50;24.70;99.90
66013;DHT22;52783;50.502;8.190;2023-09-12T07:30:15;24.90;99.90
66013;DHT22;52783;50.502;8.190;2023-09-12T07:32:41;24.90;99.90
66013;DHT22;52783;50.502;8.190;2023-09-12T07:35:07;24.80;99.90
66013;DHT22;52783;50.502;8.190;2023-09-12T07:37:32;25.00;99.90
66013;DHT22;52783;50.502;8.190;2023-09-12T07:39:58;24.90;99.90
66013;DHT22;52783;50.502;8.190;2023-09-12T07:42:24;25.00;99.90
66013;DHT22;52783;50.502;8.190;2023-09-12T07:44:50;24.40;99.90
66013;DHT22;52783;50.502;8.190;2023-09-12T07:47:16;24.60;99.90
66013;DHT22;52783;50.502;8.190;2023-09-12T07:49:41;24.60;99.90
66013;DHT22;52783;50.502;8.190;2023-09-12T07:52:07;25.00;99.90
66013;DHT22;52783;50.502;8.190;2023-09-12T07:54:32;25.30;99.90
66013;DHT22;52783;50.502;8.190;2023-09-12T07:56:58;25.30;99.90
66013;DHT22;52783;50.502;8.190;2023-09-12T07:59:24;25.70;99.90
66013;DHT22;52783;50.502;8.190;2023-09-12T08:01:50;26.30;99.90
66013;DHT22;52783;50.502;8.190;2023-09-12T08:04:16;26.10;99.90
66013;DHT22;52783;50.502;8.190;2023-09-12T08:06:42;26.10;99.90
66013;DHT22;52783;50.502;8.190;2023-09-12T08:09:08;26.10;99.90
66013;DHT22;52783;50.502;8.190;2023-09-12T08:11:35;26.50;99.90
66013;DHT22;52783;50.502;8.190;2023-09-12T08:14:01;26.70;99.90
66013;DHT22;52783;50.502;8.190;2023-09-12T08:16:26;26.00;99.90
66013;DHT22;52783;50.502;8.190;2023-09-12T08:18:52;26.30;99.90
66013;DHT22;52783;50.502;8.190;2023-09-12T08:21:17;26.40;99.90
66013;DHT22;52783;50.502;8.190;2023-09-12T08:23:43;26.90;99.90
66013;DHT22;52783;50.502;8.190;2023-09-12T08:26:10;27.10;99.90
66013;DHT22;52783;50.502;8.190;2023-09-12T08:28:36;27.50;99.90
66013;DHT22;52783;50.502;8.190;2023-09-12T08:31:01;27.60;99.90
66013;DHT22;52783;50.502;8.190;2023-09-12T08:33:27;27.00;99.90
66013;DHT22;52783;50.502;8.190;2023-09-12T08:35:52;27.60;99.90
66013;DHT22;52783;50.502;8.190;2023-09-12T08:38:18;27.60;99.90
66013;DHT22;52783;50.502;8.190;2023-09-12T08:40:50;26.90;99.90
66013;DHT22;52783;50.502;8.190;2023-09-12T08:43:16;27.50;99.90
66013;DHT22;52783;50.502;8.190;2023-09-12T08:45:42;26.60;99.90
66013;DHT22;52783;50.502;8.190;2023-09-12T08:48:11;28.00;99.90
66013;DHT22;52783;50.502;8.190;2023-09-12T08:50:38;27.00;99.90
66013;DHT22;52783;50.502;8.190;2023-09-12T08:53:04;27.00;99.90
66013;DHT22;52783;50.502;8.190;2023-09-12T08:55:31;26.30;99.90
66013;DHT22;52783;50.502;8.190;2023-09-12T08:57:59;27.30;99.90
66013;DHT22;52783;50.502;8.190;2023-09-12T09:00:25;27.50;99.90
66013;DHT22;52783;50.502;8.190;2023-09-12T09:02:52;27.70;99.90
66013;DHT22;52783;50.502;8.190;2023-09-12T09:05:20;28.10;99.90
66013;DHT22;52783;50.502;8.190;2023-09-12T09:07:45;28.00;99.90
66013;DHT22;52783;50.502;8.190;2023-09-12T09:10:15;28.00;99.90
66013;DHT22;52783;50.502;8.190;2023-09-12T09:12:43;27.50;99.90
66013;DHT22;52783;50.502;8.190;2023-09-12T09:15:23;27.90;99.90
66013;DHT22;52783;50.502;8.190;2023-09-12T09:17:49;28.70;99.90
66013;DHT22;52783;50.502;8.190;2023-09-12T09:20:32;29.00;99.90
66013;DHT22;52783;50.502;8.190;2023-09-12T09:23:07;29.10;99.90
66013;DHT22;52783;50.502;8.190;2023-09-12T09:25:41;29.70;99.90
66013;DHT22;52783;50.502;8.190;2023-09-12T09:28:20;29.90;99.90
66013;DHT22;52783;50.502;8.190;2023-09-12T09:30:47;29.90;99.90
66013;DHT22;52783;50.502;8.190;2023-09-12T09:33:15;29.50;99.90
66013;DHT22;52783;50.502;8.190;2023-09-12T09:35:46;29.70;99.90
66013;DHT22;52783;50.502;8.190;2023-09-12T09:38:12;29.30;99.90
66013;DHT22;52783;50.502;8.190;2023-09-12T09:40:42;29.00;99.90
66013;DHT22;52783;50.502;8.190;2023-09-12T09:43:07;29.40;99.90
66013;DHT22;52783;50.502;8.190;2023-09-12T09:45:43;29.60;99.90
66013;DHT22;52783;50.502;8.190;2023-09-12T09:48:10;28.70;99.90
66013;DHT22;52783;50.502;8.190;2023-09-12T09:50:35;28.00;99.90
66013;DHT22;52783;50.502;8.190;2023-09-12T09:53:02;27.40;99.90
66013;DHT22;52783;50.502;8.190;2023-09-12T09:55:30;27.70;99.90
66013;DHT22;52783;50.502;8.190;2023-09-12T09:57:55;27.80;99.90
66013;DHT22;52783;50.502;8.190;2023-09-12T10:00:22;27.10;99.90
66013;DHT22;52783;50.502;8.190;2023-09-12T10:02:50;27.30;99.90
66013;DHT22;52783;50.502;8.190;2023-09-12T10:05:17;26.70;99.90
66013;DHT22;52783;50.502;8.190;2023-09-12T10:07:42;26.70;99.90
66013;DHT22;52783;50.502;8.190;2023-09-12T10:10:10;26.40;99.90
66013;DHT22;52783;50.502;8.190;2023-09-12T10:12:39;26.80;99.90
66013;DHT22;52783;50.502;8.190;2023-09-12T10:15:09;26.80;99.90
66013;DHT22;52783;50.502;8.190;2023-09-12T10:17:37;26.90;99.90
66013;DHT22;52783;50.502;8.190;2023-09-12T10:20:09;27.00;99.90
66013;DHT22;52783;50.502;8.190;2023-09-12T10:22:40;26.70;99.90
66013;DHT22;52783;50.502;8.190;2023-09-12T10:25:08;26.90;99.90
66013;DHT22;52783;50.502;8.190;2023-09-12T10:27:34;27.00;99.90
66013;DHT22;52783;50.502;8.190;2023-09-12T10:30:01;27.30;99.90
66013;DHT22;52783;50.502;8.190;2023-09-12T10:32:28;27.40;99.90
66013;DHT22;52783;50.502;8.190;2023-09-12T10:34:58;27.40;99.90
66013;DHT22;52783;50.502;8.190;2023-09-12T10:37:25;27.20;99.90
66013;DHT22;52783;50.502;8.190;2023-09-12T10:39:55;27.20;99.90
66013;DHT22;52783;50.502;8.190;2023-09-12T10:42:22;27.20;99.90
66013;DHT22;52783;50.502;8.190;2023-09-12T10:44:49;27.50;99.90
66013;DHT22;52783;50.502;8.190;2023-09-12T10:47:15;27.40;99.90
66013;DHT22;52783;50.502;8.190;2023-09-12T10:49:43;27.50;99.90
66013;DHT22;52783;50.502;8.190;2023-09-12T10:52:09;27.70;99.90
66013;DHT22;52783;50.502;8.190;2023-09-12T10:54:39;27.80;99.90
66013;DHT22;52783;50.502;8.190;2023-09-12T10:57:10;27.20;99.90
66013;DHT22;52783;50.502;8.190;2023-09-12T11:02:37;27.30;99.90
66013;DHT22;52783;50.502;8.190;2023-09-12T11:05:34;27.60;99.90
66013;DHT22;52783;50.502;8.190;2023-09-12T11:07:57;27.50;99.90
66013;DHT22;52783;50.502;8.190;2023-09-12T11:10:23;27.60;99.90
66013;DHT22;52783;50.502;8.190;2023-09-12T11:13:00;27.60;99.90
66013;DHT22;52783;50.502;8.190;2023-09-12T11:15:27;27.50;99.90
66013;DHT22;52783;50.502;8.190;2023-09-12T11:18:01;27.80;99.90
66013;DHT22;52783;50.502;8.190;2023-09-12T11:20:49;28.00;99.90
66013;DHT22;52783;50.502;8.190;2023-09-12T11:23:14;28.10;99.90
66013;DHT22;52783;50.502;8.190;2023-09-12T11:25:40;28.20;99.90
66013;DHT22;52783;50.502;8.190;2023-09-12T11:28:05;28.20;99.90
66013;DHT22;52783;50.502;8.190;2023-09-12T11:30:31;28.50;99.90
66013;DHT22;52783;50.502;8.190;2023-09-12T11:32:57;28.50;99.90
66013;DHT22;52783;50.502;8.190;2023-09-12T11:35:28;28.40;99.90
66013;DHT22;52783;50.502;8.190;2023-09-12T11:37:58;28.70;99.90
66013;DHT22;52783;50.502;8.190;2023-09-12T11:42:57;28.80;99.90
66013;DHT22;52783;50.502;8.190;2023-09-12T11:45:23;28.80;99.90
66013;DHT22;52783;50.502;8.190;2023-09-12T11:47:49;28.60;99.90
66013;DHT22;52783;50.502;8.190;2023-09-12T11:50:33;28.90;99.90
66013;DHT22;52783;50.502;8.190;2023-09-12T11:53:07;29.00;99.90
66013;DHT22;52783;50.502;8.190;2023-09-12T11:55:54;29.20;99.90
66013;DHT22;52783;50.502;8.190;2023-09-12T11:58:20;28.60;99.90
66013;DHT22;52783;50.502;8.190;2023-09-12T12:00:54;29.00;99.90
66013;DHT22;52783;50.502;8.190;2023-09-12T12:03:22;28.60;99.90
66013;DHT22;52783;50.502;8.190;2023-09-12T12:05:49;28.80;99.90
66013;DHT22;52783;50.502;8.190;2023-09-12T12:08:16;28.70;99.90
66013;DHT22;52783;50.502;8.190;2023-09-12T12:10:42;28.80;99.90
66013;DHT22;52783;50.502;8.190;2023-09-12T12:13:12;28.50;99.90
66013;DHT22;52783;50.502;8.190;2023-09-12T12:15:37;28.70;99.90
66013;DHT22;52783;50.502;8.190;2023-09-12T12:18:03;28.90;99.90
66013;DHT22;52783;50.502;8.190;2023-09-12T12:20:29;28.90;99.90
66013;DHT22;52783;50.502;8.190;2023-09-12T12:22:55;28.60;99.90
66013;DHT22;52783;50.502;8.190;2023-09-12T12:25:21;28.50;99.90
66013;DHT22;52783;50.502;8.190;2023-09-12T12:27:47;28.40;99.90
66013;DHT22;52783;50.502;8.190;2023-09-12T12:30:13;27.90;99.90
66013;DHT22;52783;50.502;8.190;2023-09-12T12:32:43;27.80;99.90
66013;DHT22;52783;50.502;8.190;2023-09-12T12:35:17;27.70;99.90
66013;DHT22;52783;50.502;8.190;2023-09-12T12:37:43;27.50;99.90
66013;DHT22;52783;50.502;8.190;2023-09-12T12:40:12;27.50;99.90
66013;DHT22;52783;50.502;8.190;2023-09-12T12:42:39;27.30;99.90
66013;DHT22;52783;50.502;8.190;2023-09-12T12:45:51;27.00;99.90
66013;DHT22;52783;50.502;8.190;2023-09-12T12:48:03;26.80;99.90
66013;DHT22;52783;50.502;8.190;2023-09-12T12:50:29;26.50;99.90
66013;DHT22;52783;50.502;8.190;2023-09-12T12:52:55;26.80;99.90
66013;DHT22;52783;50.502;8.190;2023-09-12T12:55:21;26.80;99.90
66013;DHT22;52783;50.502;8.190;2023-09-12T12:57:48;27.00;99.90
66013;DHT22;52783;50.502;8.190;2023-09-12T13:00:17;27.00;99.90
66013;DHT22;52783;50.502;8.190;2023-09-12T13:02:44;26.80;99.90
66013;DHT22;52783;50.502;8.190;2023-09-12T13:05:28;27.00;99.90
66013;DHT22;52783;50.502;8.190;2023-09-12T13:07:54;27.00;99.90
66013;DHT22;52783;50.502;8.190;2023-09-12T13:10:20;27.00;99.90
66013;DHT22;52783;50.502;8.190;2023-09-12T13:12:47;26.80;99.90
66013;DHT22;52783;50.502;8.190;2023-09-12T13:15:13;26.90;99.90
66013;DHT22;52783;50.502;8.190;2023-09-12T13:17:40;27.00;99.90
66013;DHT22;52783;50.502;8.190;2023-09-12T13:20:06;27.00;99.90
66013;DHT22;52783;50.502;8.190;2023-09-12T13:22:34;27.00;99.90
66013;DHT22;52783;50.502;8.190;2023-09-12T13:24:59;26.70;99.90
66013;DHT22;52783;50.502;8.190;2023-09-12T13:27:25;26.60;99.90
66013;DHT22;52783;50.502;8.190;2023-09-12T13:29:50;26.70;99.90
66013;DHT22;52783;50.502;8.190;2023-09-12T13:32:16;26.60;99.90
66013;DHT22;52783;50.502;8.190;2023-09-12T13:34:44;26.50;99.90
66013;DHT22;52783;50.502;8.190;2023-09-12T13:37:09;26.60;99.90
66013;DHT22;52783;50.502;8.190;2023-09-12T13:39:35;26.30;99.90
66013;DHT22;52783;50.502;8.190;2023-09-12T13:42:00;25.90;99.90
66013;DHT22;52783;50.502;8.190;2023-09-12T13:44:28;26.20;99.90
66013;DHT22;52783;50.502;8.190;2023-09-12T13:46:54;26.40;99.90
66013;DHT22;52783;50.502;8.190;2023-09-12T13:49:19;26.60;99.90
66013;DHT22;52783;50.502;8.190;2023-09-12T13:51:45;26.50;99.90
66013;DHT22;52783;50.502;8.190;2023-09-12T13:54:10;26.60;99.90
66013;DHT22;52783;50.502;8.190;2023-09-12T13:56:40;26.70;99.90
66013;DHT22;52783;50.502;8.190;2023-09-12T13:59:06;26.60;99.90
66013;DHT22;52783;50.502;8.190;2023-09-12T14:01:32;26.60;99.90
66013;DHT22;52783;50.502;8.190;2023-09-12T14:03:57;26.70;99.90
66013;DHT22;52783;50.502;8.190;2023-09-12T14:06:23;26.70;99.90
66013;DHT22;52783;50.502;8.190;2023-09-12T14:08:48;26.60;99.90
66013;DHT22;52783;50.502;8.190;2023-09-12T14:11:14;26.70;99.90
66013;DHT22;52783;50.502;8.190;2023-09-12T14:13:39;26.90;99.90
66013;DHT22;52783;50.502;8.190;2023-09-12T14:16:05;27.20;99.90
66013;DHT22;52783;50.502;8.190;2023-09-12T14:18:30;27.30;99.90
66013;DHT22;52783;50.502;8.190;2023-09-12T14:20:56;27.00;99.90
66013;DHT22;52783;50.502;8.190;2023-09-12T14:23:22;27.20;99.90
66013;DHT22;52783;50.502;8.190;2023-09-12T14:25:48;27.20;99.90
66013;DHT22;52783;50.502;8.190;2023-09-12T14:28:13;27.40;99.90
66013;DHT22;52783;50.502;8.190;2023-09-12T14:30:39;27.10;99.90
66013;DHT22;52783;50.502;8.190;2023-09-12T14:33:09;27.00;99.90
66013;DHT22;52783;50.502;8.190;2023-09-12T14:35:35;26.90;99.90
66013;DHT22;52783;50.502;8.190;2023-09-12T14:38:01;27.00;99.90
66013;DHT22;52783;50.502;8.190;2023-09-12T14:40:27;27.00;99.90
66013;DHT22;52783;50.502;8.190;2023-09-12T14:42:53;27.10;99.90
66013;DHT22;52783;50.502;8.190;2023-09-12T14:45:19;27.10;99.90
66013;DHT22;52783;50.502;8.190;2023-09-12T14:47:44;27.20;99.90
66013;DHT22;52783;50.502;8.190;2023-09-12T14:50:10;27.10;99.90
66013;DHT22;52783;50.502;8.190;2023-09-12T14:52:36;27.10;99.90
66013;DHT22;52783;50.502;8.190;2023-09-12T14:55:04;26.70;99.90
66013;DHT22;52783;50.502;8.190;2023-09-12T14:57:30;26.80;99.90
66013;DHT22;52783;50.502;8.190;2023-09-12T14:59:55;26.70;99.90
66013;DHT22;52783;50.502;8.190;2023-09-12T15:02:24;26.60;99.90
66013;DHT22;52783;50.502;8.190;2023-09-12T15:04:49;26.70;99.90
66013;DHT22;52783;50.502;8.190;2023-09-12T15:07:15;26.70;99.90
66013;DHT22;52783;50.502;8.190;2023-09-12T15:09:40;26.80;99.90
66013;DHT22;52783;50.502;8.190;2023-09-12T15:12:06;26.80;99.90
66013;DHT22;52783;50.502;8.190;2023-09-12T15:14:34;26.90;99.90
66013;DHT22;52783;50.502;8.190;2023-09-12T15:16:59;27.00;99.90
66013;DHT22;52783;50.502;8.190;2023-09-12T15:19:25;26.90;99.90
66013;DHT22;52783;50.502;8.190;2023-09-12T15:21:51;27.10;99.90
66013;DHT22;52783;50.502;8.190;2023-09-12T15:24:16;27.20;99.90
66013;DHT22;52783;50.502;8.190;2023-09-12T15:26:42;27.10;99.90
66013;DHT22;52783;50.502;8.190;2023-09-12T15:29:07;27.00;99.90
66013;DHT22;52783;50.502;8.190;2023-09-12T15:31:34;27.20;99.90
66013;DHT22;52783;50.502;8.190;2023-09-12T15:33:59;27.00;99.90
66013;DHT22;52783;50.502;8.190;2023-09-12T15:36:25;27.20;99.90
66013;DHT22;52783;50.502;8.190;2023-09-12T15:38:50;27.10;99.90